sensor_id;sensor_type;location;lat;lon;timestamp;temperature;humidity
15959;DHT22;8078;47.822;9.402;2023-04-03T00:01:13;1.40;99.90
15959;DHT22;8078;47.822;9.402;2023-04-03T00:03:39;1.40;99.90
15959;DHT22;8078;47.822;9.402;2023-04-03T00:06:06;1.40;99.90
15959;DHT22;8078;47.822;9.402;2023-04-03T00:08:34;1.40;99.90
15959;DHT22;8078;47.822;9.402;2023-04-03T00:11:00;1.40;99.90
15959;DHT22;8078;47.822;9.402;2023-04-03T00:13:26;1.40;99.90
15959;DHT22;8078;47.822;9.402;2023-04-03T00:15:51;1.40;99.90
15959;DHT22;8078;47.822;9.402;2023-04-03T00:18:17;1.30;99.90
15959;DHT22;8078;47.822;9.402;2023-04-03T00:20:43;1.30;99.90
15959;DHT22;8078;47.822;9.402;2023-04-03T00:23:09;1.30;99.90
15959;DHT22;8078;47.822;9.402;2023-04-03T00:25:35;1.30;99.90
15959;DHT22;8078;47.822;9.402;2023-04-03T00:28:01;1.30;99.90
15959;DHT22;8078;47.822;9.402;2023-04-03T00:30:26;1.40;99.90
15959;DHT22;8078;47.822;9.402;2023-04-03T00:32:52;1.40;99.90
15959;DHT22;8078;47.822;9.402;2023-04-03T00:35:20;1.40;99.90
15959;DHT22;8078;47.822;9.402;2023-04-03T00:37:46;1.40;99.90
15959;DHT22;8078;47.822;9.402;2023-04-03T00:40:13;1.40;99.90
15959;DHT22;8078;47.822;9.402;2023-04-03T00:42:41;1.30;99.90
15959;DHT22;8078;47.822;9.402;2023-04-03T00:45:45;1.30;99.90
15959;DHT22;8078;47.822;9.402;2023-04-03T00:48:13;1.20;99.90
15959;DHT22;8078;47.822;9.402;2023-04-03T00:50:41;1.10;99.90
15959;DHT22;8078;47.822;9.402;2023-04-03T00:53:12;1.10;99.90
15959;DHT22;8078;47.822;9.402;2023-04-03T00:55:38;1.10;99.90
15959;DHT22;8078;47.822;9.402;2023-04-03T00:58:05;1.10;99.90
15959;DHT22;8078;47.822;9.402;2023-04-03T01:00:32;1.10;99.90
15959;DHT22;8078;47.822;9.402;2023-04-03T01:02:58;1.10;99.90
15959;DHT22;8078;47.822;9.402;2023-04-03T01:05:24;1.00;99.90
15959;DHT22;8078;47.822;9.402;2023-04-03T01:07:51;1.00;99.90
15959;DHT22;8078;47.822;9.402;2023-04-03T01:10:18;1.00;99.90
15959;DHT22;8078;47.822;9.402;2023-04-03T01:12:47;1.00;99.90
15959;DHT22;8078;47.822;9.402;2023-04-03T01:15:23;0.90;99.90
15959;DHT22;8078;47.822;9.402;2023-04-03T01:17:57;0.90;99.90
15959;DHT22;8078;47.822;9.402;2023-04-03T01:26:02;0.50;99.90
15959;DHT22;8078;47.822;9.402;2023-04-03T01:28:30;0.50;99.90
15959;DHT22;8078;47.822;9.402;2023-04-03T01:33:31;0.40;99.90
15959;DHT22;8078;47.822;9.402;2023-04-03T01:35:56;0.40;99.90
15959;DHT22;8078;47.822;9.402;2023-04-03T01:38:22;0.30;99.90
15959;DHT22;8078;47.822;9.402;2023-04-03T01:40:48;0.30;99.90
15959;DHT22;8078;47.822;9.402;2023-04-03T01:43:13;0.30;99.90
15959;DHT22;8078;47.822;9.402;2023-04-03T01:45:39;0.30;99.90
15959;DHT22;8078;47.822;9.402;2023-04-03T01:48:04;0.20;99.90
15959;DHT22;8078;47.822;9.402;2023-04-03T01:50:30;0.20;99.90
15959;DHT22;8078;47.822;9.402;2023-04-03T01:52:55;0.20;99.90
15959;DHT22;8078;47.822;9.402;2023-04-03T01:55:21;0.20;99.90
15959;DHT22;8078;47.822;9.402;2023-04-03T01:57:47;0.20;99.90
15959;DHT22;8078;47.822;9.402;2023-04-03T02:00:13;0.20;99.90
15959;DHT22;8078;47.822;9.402;2023-04-03T02:02:39;0.10;99.90
15959;DHT22;8078;47.822;9.402;2023-04-03T02:05:05;0.10;99.90
15959;DHT22;8078;47.822;9.402;2023-04-03T02:07:31;0.00;99.90
15959;DHT22;8078;47.822;9.402;2023-04-03T02:09:56;0.10;99.90
15959;DHT22;8078;47.822;9.402;2023-04-03T02:12:22;0.10;99.90
15959;DHT22;8078;47.822;9.402;2023-04-03T02:14:47;0.00;99.90
15959;DHT22;8078;47.822;9.402;2023-04-03T02:17:13;0.00;99.90
15959;DHT22;8078;47.822;9.402;2023-04-03T02:19:38;0.00;99.90
15959;DHT22;8078;47.822;9.402;2023-04-03T02:22:04;0.00;99.90
15959;DHT22;8078;47.822;9.402;2023-04-03T02:24:30;0.00;99.90
15959;DHT22;8078;47.822;9.402;2023-04-03T02:26:56;0.00;99.90
15959;DHT22;8078;47.822;9.402;2023-04-03T02:29:22;0.00;99.90
15959;DHT22;8078;47.822;9.402;2023-04-03T02:31:48;-0.10;99.90
15959;DHT22;8078;47.822;9.402;2023-04-03T02:34:14;0.00;99.90
15959;DHT22;8078;47.822;9.402;2023-04-03T02:36:40;0.00;99.90
15959;DHT22;8078;47.822;9.402;2023-04-03T02:39:05;0.00;99.90
15959;DHT22;8078;47.822;9.402;2023-04-03T02:41:31;0.00;99.90
15959;DHT22;8078;47.822;9.402;2023-04-03T02:44:06;-0.10;99.90
15959;DHT22;8078;47.822;9.402;2023-04-03T02:46:32;-0.10;99.90
15959;DHT22;8078;47.822;9.402;2023-04-03T02:48:58;-0.10;99.90
15959;DHT22;8078;47.822;9.402;2023-04-03T02:51:24;-0.10;99.90
15959;DHT22;8078;47.822;9.402;2023-04-03T02:53:50;-0.10;99.90
15959;DHT22;8078;47.822;9.402;2023-04-03T02:56:16;-0.10;99.90
15959;DHT22;8078;47.822;9.402;2023-04-03T02:58:42;-0.10;99.90
15959;DHT22;8078;47.822;9.402;2023-04-03T03:01:08;-0.10;99.90
15959;DHT22;8078;47.822;9.402;2023-04-03T03:03:33;-0.20;99.90
15959;DHT22;8078;47.822;9.402;2023-04-03T03:06:11;-0.10;99.90
15959;DHT22;8078;47.822;9.402;2023-04-03T03:08:37;-0.20;99.90
15959;DHT22;8078;47.822;9.402;2023-04-03T03:11:06;-0.20;99.90
15959;DHT22;8078;47.822;9.402;2023-04-03T03:13:32;-0.30;99.90
15959;DHT22;8078;47.822;9.402;2023-04-03T03:15:58;-0.30;99.90
15959;DHT22;8078;47.822;9.402;2023-04-03T03:18:24;-0.30;99.90
15959;DHT22;8078;47.822;9.402;2023-04-03T03:20:54;-0.30;99.90
15959;DHT22;8078;47.822;9.402;2023-04-03T03:23:21;-0.30;99.90
15959;DHT22;8078;47.822;9.402;2023-04-03T03:25:47;-0.40;99.90
15959;DHT22;8078;47.822;9.402;2023-04-03T03:28:12;-0.40;99.90
15959;DHT22;8078;47.822;9.402;2023-04-03T03:30:38;-0.40;99.90
15959;DHT22;8078;47.822;9.402;2023-04-03T03:33:04;-0.30;99.90
15959;DHT22;8078;47.822;9.402;2023-04-03T03:35:29;-0.40;99.90
15959;DHT22;8078;47.822;9.402;2023-04-03T03:37:55;-0.40;99.90
15959;DHT22;8078;47.822;9.402;2023-04-03T03:40:21;-0.40;99.90
15959;DHT22;8078;47.822;9.402;2023-04-03T03:42:46;-0.40;99.90
15959;DHT22;8078;47.822;9.402;2023-04-03T03:45:12;-0.40;99.90
15959;DHT22;8078;47.822;9.402;2023-04-03T03:47:37;-0.30;99.90
15959;DHT22;8078;47.822;9.402;2023-04-03T03:50:03;-0.40;99.90
15959;DHT22;8078;47.822;9.402;2023-04-03T03:52:30;-0.40;99.90
15959;DHT22;8078;47.822;9.402;2023-04-03T03:54:55;-0.30;99.90
15959;DHT22;8078;47.822;9.402;2023-04-03T03:57:21;-0.30;99.90
15959;DHT22;8078;47.822;9.402;2023-04-03T03:59:47;-0.30;99.90
15959;DHT22;8078;47.822;9.402;2023-04-03T04:02:14;-0.30;99.90
15959;DHT22;8078;47.822;9.402;2023-04-03T04:04:39;-0.30;99.90
15959;DHT22;8078;47.822;9.402;2023-04-03T04:07:05;-0.40;99.90
15959;DHT22;8078;47.822;9.402;2023-04-03T04:09:31;-0.30;99.90
15959;DHT22;8078;47.822;9.402;2023-04-03T04:11:56;-0.30;99.90
15959;DHT22;8078;47.822;9.402;2023-04-03T04:14:22;-0.40;99.90
15959;DHT22;8078;47.822;9.402;2023-04-03T04:16:48;-0.40;99.90
15959;DHT22;8078;47.822;9.402;2023-04-03T04:19:14;-0.40;99.90
15959;DHT22;8078;47.822;9.402;2023-04-03T04:21:39;-0.40;99.90
15959;DHT22;8078;47.822;9.402;2023-04-03T04:24:07;-0.40;99.90
15959;DHT22;8078;47.822;9.402;2023-04-03T04:26:34;-0.40;99.90
15959;DHT22;8078;47.822;9.402;2023-04-03T04:29:00;-0.40;99.90
15959;DHT22;8078;47.822;9.402;2023-04-03T04:31:25;-0.40;99.90
15959;DHT22;8078;47.822;9.402;2023-04-03T04:33:52;-0.40;99.90
15959;DHT22;8078;47.822;9.402;2023-04-03T04:36:18;-0.50;99.90
15959;DHT22;8078;47.822;9.402;2023-04-03T04:38:44;-0.50;99.90
15959;DHT22;8078;47.822;9.402;2023-04-03T04:41:09;-0.50;99.90
15959;DHT22;8078;47.822;9.402;2023-04-03T04:43:35;-0.50;99.90
15959;DHT22;8078;47.822;9.402;2023-04-03T04:46:06;-0.50;99.90
15959;DHT22;8078;47.822;9.402;2023-04-03T04:48:32;-0.50;99.90
15959;DHT22;8078;47.822;9.402;2023-04-03T04:50:58;-0.50;99.90
15959;DHT22;8078;47.822;9.402;2023-04-03T04:53:24;-0.50;99.90
15959;DHT22;8078;47.822;9.402;2023-04-03T04:55:50;-0.50;99.90
15959;DHT22;8078;47.822;9.402;2023-04-03T04:58:16;-0.50;99.90
15959;DHT22;8078;47.822;9.402;2023-04-03T05:00:42;-0.60;99.90
15959;DHT22;8078;47.822;9.402;2023-04-03T05:03:07;-0.60;99.90
15959;DHT22;8078;47.822;9.402;2023-04-03T05:05:33;-0.60;99.90
15959;DHT22;8078;47.822;9.402;2023-04-03T05:07:58;-0.60;99.90
15959;DHT22;8078;47.822;9.402;2023-04-03T05:10:24;-0.60;99.90
15959;DHT22;8078;47.822;9.402;2023-04-03T05:12:49;-0.50;99.90
15959;DHT22;8078;47.822;9.402;2023-04-03T05:15:15;-0.50;99.90
15959;DHT22;8078;47.822;9.402;2023-04-03T05:17:40;-0.50;99.90
15959;DHT22;8078;47.822;9.402;2023-04-03T05:20:06;-0.40;99.90
15959;DHT22;8078;47.822;9.402;2023-04-03T05:22:32;-0.40;99.90
15959;DHT22;8078;47.822;9.402;2023-04-03T05:24:57;-0.40;99.90
15959;DHT22;8078;47.822;9.402;2023-04-03T05:27:23;-0.40;99.90
15959;DHT22;8078;47.822;9.402;2023-04-03T05:29:50;-0.40;99.90
15959;DHT22;8078;47.822;9.402;2023-04-03T05:32:16;-0.30;99.90
15959;DHT22;8078;47.822;9.402;2023-04-03T05:34:41;-0.30;99.90
15959;DHT22;8078;47.822;9.402;2023-04-03T05:37:07;-0.30;99.90
15959;DHT22;8078;47.822;9.402;2023-04-03T05:39:33;-0.30;99.90
15959;DHT22;8078;47.822;9.402;2023-04-03T05:41:59;-0.20;99.90
15959;DHT22;8078;47.822;9.402;2023-04-03T05:44:24;-0.20;99.90
15959;DHT22;8078;47.822;9.402;2023-04-03T05:46:50;-0.20;99.90
15959;DHT22;8078;47.822;9.402;2023-04-03T05:49:16;-0.20;99.90
15959;DHT22;8078;47.822;9.402;2023-04-03T05:51:41;-0.20;99.90
15959;DHT22;8078;47.822;9.402;2023-04-03T05:56:37;-0.10;99.90
15959;DHT22;8078;47.822;9.402;2023-04-03T05:59:02;-0.10;99.90
15959;DHT22;8078;47.822;9.402;2023-04-03T06:01:28;-0.10;99.90
15959;DHT22;8078;47.822;9.402;2023-04-03T06:03:53;-0.10;99.90
15959;DHT22;8078;47.822;9.402;2023-04-03T06:06:19;0.00;99.90
15959;DHT22;8078;47.822;9.402;2023-04-03T06:08:45;0.00;99.90
15959;DHT22;8078;47.822;9.402;2023-04-03T06:11:11;0.00;99.90
15959;DHT22;8078;47.822;9.402;2023-04-03T06:13:37;0.00;99.90
15959;DHT22;8078;47.822;9.402;2023-04-03T06:16:02;0.00;99.90
15959;DHT22;8078;47.822;9.402;2023-04-03T06:18:29;0.10;99.90
15959;DHT22;8078;47.822;9.402;2023-04-03T06:20:55;0.10;99.90
15959;DHT22;8078;47.822;9.402;2023-04-03T06:23:20;0.10;99.90
15959;DHT22;8078;47.822;9.402;2023-04-03T06:25:46;0.20;99.90
15959;DHT22;8078;47.822;9.402;2023-04-03T06:28:12;0.20;99.90
15959;DHT22;8078;47.822;9.402;2023-04-03T06:30:38;0.20;99.90
15959;DHT22;8078;47.822;9.402;2023-04-03T06:33:03;0.20;99.90
15959;DHT22;8078;47.822;9.402;2023-04-03T06:35:29;0.30;99.90
15959;DHT22;8078;47.822;9.402;2023-04-03T06:37:56;0.30;99.90
15959;DHT22;8078;47.822;9.402;2023-04-03T06:40:23;0.30;99.90
15959;DHT22;8078;47.822;9.402;2023-04-03T06:42:49;0.30;99.90
15959;DHT22;8078;47.822;9.402;2023-04-03T06:45:15;0.40;99.90
15959;DHT22;8078;47.822;9.402;2023-04-03T06:47:41;0.40;99.90
15959;DHT22;8078;47.822;9.402;2023-04-03T06:50:07;0.50;99.90
15959;DHT22;8078;47.822;9.402;2023-04-03T06:52:34;0.50;99.90
15959;DHT22;8078;47.822;9.402;2023-04-03T06:55:00;0.50;99.90
15959;DHT22;8078;47.822;9.402;2023-04-03T06:57:25;0.50;99.90
15959;DHT22;8078;47.822;9.402;2023-04-03T06:59:51;0.60;99.90
15959;DHT22;8078;47.822;9.402;2023-04-03T07:02:17;0.60;99.90
15959;DHT22;8078;47.822;9.402;2023-04-03T07:04:42;0.70;99.90
15959;DHT22;8078;47.822;9.402;2023-04-03T07:07:08;0.70;99.90
15959;DHT22;8078;47.822;9.402;2023-04-03T07:09:34;0.70;99.90
15959;DHT22;8078;47.822;9.402;2023-04-03T07:11:59;0.60;99.90
15959;DHT22;8078;47.822;9.402;2023-04-03T07:14:26;0.60;99.90
15959;DHT22;8078;47.822;9.402;2023-04-03T07:16:51;0.60;99.90
15959;DHT22;8078;47.822;9.402;2023-04-03T07:19:17;0.60;99.90
15959;DHT22;8078;47.822;9.402;2023-04-03T07:21:44;0.60;99.90
15959;DHT22;8078;47.822;9.402;2023-04-03T07:24:10;0.60;99.90
15959;DHT22;8078;47.822;9.402;2023-04-03T07:26:36;0.70;99.90
15959;DHT22;8078;47.822;9.402;2023-04-03T07:29:01;0.80;99.90
15959;DHT22;8078;47.822;9.402;2023-04-03T07:31:27;0.80;99.90
15959;DHT22;8078;47.822;9.402;2023-04-03T07:33:53;1.00;99.90
15959;DHT22;8078;47.822;9.402;2023-04-03T07:36:19;1.00;99.90
15959;DHT22;8078;47.822;9.402;2023-04-03T07:38:45;1.10;99.90
15959;DHT22;8078;47.822;9.402;2023-04-03T07:41:15;1.10;99.90
15959;DHT22;8078;47.822;9.402;2023-04-03T07:43:41;1.10;99.90
15959;DHT22;8078;47.822;9.402;2023-04-03T07:46:08;1.20;99.90
15959;DHT22;8078;47.822;9.402;2023-04-03T07:48:34;1.20;99.90
15959;DHT22;8078;47.822;9.402;2023-04-03T07:51:01;1.30;99.90
15959;DHT22;8078;47.822;9.402;2023-04-03T07:53:27;1.30;99.90
15959;DHT22;8078;47.822;9.402;2023-04-03T07:55:53;1.30;99.90
15959;DHT22;8078;47.822;9.402;2023-04-03T07:58:21;1.40;99.90
15959;DHT22;8078;47.822;9.402;2023-04-03T08:00:47;1.50;99.90
15959;DHT22;8078;47.822;9.402;2023-04-03T08:03:13;1.40;99.90
15959;DHT22;8078;47.822;9.402;2023-04-03T08:05:44;1.40;99.90
15959;DHT22;8078;47.822;9.402;2023-04-03T08:08:11;1.40;99.90
15959;DHT22;8078;47.822;9.402;2023-04-03T08:10:37;1.40;99.90
15959;DHT22;8078;47.822;9.402;2023-04-03T08:13:03;1.40;99.90
15959;DHT22;8078;47.822;9.402;2023-04-03T08:15:30;1.30;99.90
15959;DHT22;8078;47.822;9.402;2023-04-03T08:17:55;1.40;99.90
15959;DHT22;8078;47.822;9.402;2023-04-03T08:20:21;1.40;99.90
15959;DHT22;8078;47.822;9.402;2023-04-03T08:22:47;1.50;99.90
15959;DHT22;8078;47.822;9.402;2023-04-03T08:25:12;1.50;99.90
15959;DHT22;8078;47.822;9.402;2023-04-03T08:27:38;1.50;99.90
15959;DHT22;8078;47.822;9.402;2023-04-03T08:30:05;1.60;99.90
15959;DHT22;8078;47.822;9.402;2023-04-03T08:32:32;1.70;99.90
15959;DHT22;8078;47.822;9.402;2023-04-03T08:34:58;1.60;99.90
15959;DHT22;8078;47.822;9.402;2023-04-03T08:37:24;1.50;99.90
15959;DHT22;8078;47.822;9.402;2023-04-03T08:39:49;1.70;99.90
15959;DHT22;8078;47.822;9.402;2023-04-03T08:45:30;1.90;99.90
15959;DHT22;8078;47.822;9.402;2023-04-03T08:48:08;2.10;99.90
15959;DHT22;8078;47.822;9.402;2023-04-03T08:50:40;2.20;99.90
15959;DHT22;8078;47.822;9.402;2023-04-03T08:53:14;2.30;99.90
15959;DHT22;8078;47.822;9.402;2023-04-03T08:55:44;2.30;99.90
15959;DHT22;8078;47.822;9.402;2023-04-03T08:58:30;2.10;99.90
15959;DHT22;8078;47.822;9.402;2023-04-03T09:01:34;2.10;99.90
15959;DHT22;8078;47.822;9.402;2023-04-03T09:04:10;2.20;99.90
15959;DHT22;8078;47.822;9.402;2023-04-03T09:06:38;2.40;99.90
15959;DHT22;8078;47.822;9.402;2023-04-03T09:09:13;2.60;99.90
15959;DHT22;8078;47.822;9.402;2023-04-03T09:18:18;2.60;99.90
15959;DHT22;8078;47.822;9.402;2023-04-03T09:23:40;2.70;99.90
15959;DHT22;8078;47.822;9.402;2023-04-03T09:26:16;2.60;99.90
15959;DHT22;8078;47.822;9.402;2023-04-03T09:28:43;2.80;99.90
15959;DHT22;8078;47.822;9.402;2023-04-03T09:31:24;2.80;99.90
15959;DHT22;8078;47.822;9.402;2023-04-03T09:33:52;2.70;99.90
15959;DHT22;8078;47.822;9.402;2023-04-03T09:36:44;2.50;99.90
15959;DHT22;8078;47.822;9.402;2023-04-03T09:39:15;2.20;99.90
15959;DHT22;8078;47.822;9.402;2023-04-03T09:41:42;2.30;99.90
15959;DHT22;8078;47.822;9.402;2023-04-03T09:44:25;2.50;99.90
15959;DHT22;8078;47.822;9.402;2023-04-03T09:46:52;2.60;99.90
15959;DHT22;8078;47.822;9.402;2023-04-03T09:49:18;2.60;99.90
15959;DHT22;8078;47.822;9.402;2023-04-03T09:51:45;2.60;99.90
15959;DHT22;8078;47.822;9.402;2023-04-03T09:56:56;2.40;99.90
15959;DHT22;8078;47.822;9.402;2023-04-03T09:59:23;2.30;99.90
15959;DHT22;8078;47.822;9.402;2023-04-03T10:04:43;2.40;99.90
15959;DHT22;8078;47.822;9.402;2023-04-03T10:07:29;2.40;99.90
15959;DHT22;8078;47.822;9.402;2023-04-03T10:12:40;2.50;99.90
15959;DHT22;8078;47.822;9.402;2023-04-03T10:15:12;2.40;99.90
15959;DHT22;8078;47.822;9.402;2023-04-03T10:17:51;2.40;99.90
15959;DHT22;8078;47.822;9.402;2023-04-03T10:34:20;2.30;99.90
15959;DHT22;8078;47.822;9.402;2023-04-03T10:37:27;2.30;99.90
15959;DHT22;8078;47.822;9.402;2023-04-03T10:39:57;2.50;99.90
15959;DHT22;8078;47.822;9.402;2023-04-03T10:42:50;2.80;99.90
15959;DHT22;8078;47.822;9.402;2023-04-03T10:48:10;3.40;99.90
15959;DHT22;8078;47.822;9.402;2023-04-03T10:53:39;3.50;99.90
15959;DHT22;8078;47.822;9.402;2023-04-03T10:58:45;3.00;99.90
15959;DHT22;8078;47.822;9.402;2023-04-03T11:01:42;2.70;99.90
15959;DHT22;8078;47.822;9.402;2023-04-03T11:04:06;2.60;99.90
15959;DHT22;8078;47.822;9.402;2023-04-03T11:06:37;2.70;99.90
15959;DHT22;8078;47.822;9.402;2023-04-03T11:09:28;2.90;99.90
15959;DHT22;8078;47.822;9.402;2023-04-03T11:12:11;3.30;99.90
15959;DHT22;8078;47.822;9.402;2023-04-03T11:14:38;3.80;99.90
15959;DHT22;8078;47.822;9.402;2023-04-03T11:17:33;3.80;99.90
15959;DHT22;8078;47.822;9.402;2023-04-03T11:20:17;3.80;99.90
15959;DHT22;8078;47.822;9.402;2023-04-03T11:22:54;3.70;99.90
15959;DHT22;8078;47.822;9.402;2023-04-03T11:25:25;3.60;99.90
15959;DHT22;8078;47.822;9.402;2023-04-03T11:27:56;3.60;99.90
15959;DHT22;8078;47.822;9.402;2023-04-03T11:30:30;3.50;99.90
15959;DHT22;8078;47.822;9.402;2023-04-03T11:35:31;3.00;99.90
15959;DHT22;8078;47.822;9.402;2023-04-03T11:37:59;3.00;99.90
15959;DHT22;8078;47.822;9.402;2023-04-03T11:40:34;3.10;99.90
15959;DHT22;8078;47.822;9.402;2023-04-03T11:46:02;3.30;99.90
15959;DHT22;8078;47.822;9.402;2023-04-03T11:51:00;3.80;99.90
15959;DHT22;8078;47.822;9.402;2023-04-03T11:55:58;3.80;99.90
15959;DHT22;8078;47.822;9.402;2023-04-03T11:58:35;4.00;99.90
15959;DHT22;8078;47.822;9.402;2023-04-03T12:01:08;4.10;99.90
15959;DHT22;8078;47.822;9.402;2023-04-03T12:03:58;4.00;99.90
15959;DHT22;8078;47.822;9.402;2023-04-03T12:08:58;4.10;99.90
15959;DHT22;8078;47.822;9.402;2023-04-03T12:11:28;4.10;99.90
15959;DHT22;8078;47.822;9.402;2023-04-03T12:24:26;4.00;99.90
15959;DHT22;8078;47.822;9.402;2023-04-03T12:46:48;3.80;99.90
15959;DHT22;8078;47.822;9.402;2023-04-03T12:49:30;4.00;99.90
15959;DHT22;8078;47.822;9.402;2023-04-03T12:51:58;4.00;99.90
15959;DHT22;8078;47.822;9.402;2023-04-03T12:54:35;4.20;99.90
15959;DHT22;8078;47.822;9.402;2023-04-03T12:57:19;4.30;99.90
15959;DHT22;8078;47.822;9.402;2023-04-03T12:59:45;4.30;99.90
15959;DHT22;8078;47.822;9.402;2023-04-03T13:04:53;4.60;99.90
15959;DHT22;8078;47.822;9.402;2023-04-03T13:07:28;4.40;99.90
15959;DHT22;8078;47.822;9.402;2023-04-03T13:10:02;4.60;99.90
15959;DHT22;8078;47.822;9.402;2023-04-03T13:12:29;4.60;99.90
15959;DHT22;8078;47.822;9.402;2023-04-03T13:14:57;4.50;99.90
15959;DHT22;8078;47.822;9.402;2023-04-03T13:17:24;4.40;99.90
15959;DHT22;8078;47.822;9.402;2023-04-03T13:19:50;4.40;99.90
15959;DHT22;8078;47.822;9.402;2023-04-03T13:22:27;4.50;99.90
15959;DHT22;8078;47.822;9.402;2023-04-03T13:24:54;4.40;99.90
15959;DHT22;8078;47.822;9.402;2023-04-03T13:27:20;4.50;99.90
15959;DHT22;8078;47.822;9.402;2023-04-03T13:29:51;4.30;99.90
15959;DHT22;8078;47.822;9.402;2023-04-03T13:32:21;4.00;99.90
15959;DHT22;8078;47.822;9.402;2023-04-03T13:34:48;3.80;99.90
15959;DHT22;8078;47.822;9.402;2023-04-03T13:37:23;3.80;99.90
15959;DHT22;8078;47.822;9.402;2023-04-03T13:42:26;3.80;99.90
15959;DHT22;8078;47.822;9.402;2023-04-03T13:45:26;3.70;99.90
15959;DHT22;8078;47.822;9.402;2023-04-03T13:48:08;3.80;99.90
15959;DHT22;8078;47.822;9.402;2023-04-03T13:53:43;4.10;99.90
15959;DHT22;8078;47.822;9.402;2023-04-03T14:02:12;4.20;99.90
15959;DHT22;8078;47.822;9.402;2023-04-03T14:07:14;4.10;99.90
15959;DHT22;8078;47.822;9.402;2023-04-03T14:09:40;4.10;99.90
15959;DHT22;8078;47.822;9.402;2023-04-03T14:12:11;4.00;99.90
15959;DHT22;8078;47.822;9.402;2023-04-03T14:14:37;3.90;99.90
15959;DHT22;8078;47.822;9.402;2023-04-03T14:17:14;4.00;99.90
15959;DHT22;8078;47.822;9.402;2023-04-03T14:19:41;4.10;99.90
15959;DHT22;8078;47.822;9.402;2023-04-03T14:22:15;4.20;99.90
15959;DHT22;8078;47.822;9.402;2023-04-03T14:24:41;4.30;99.90
15959;DHT22;8078;47.822;9.402;2023-04-03T14:27:15;4.60;99.90
15959;DHT22;8078;47.822;9.402;2023-04-03T14:29:41;4.90;99.90
15959;DHT22;8078;47.822;9.402;2023-04-03T14:32:06;5.00;99.90
15959;DHT22;8078;47.822;9.402;2023-04-03T14:34:32;5.00;99.90
15959;DHT22;8078;47.822;9.402;2023-04-03T14:36:57;4.80;99.90
15959;DHT22;8078;47.822;9.402;2023-04-03T14:39:23;4.60;99.90
15959;DHT22;8078;47.822;9.402;2023-04-03T14:41:49;4.30;99.90
15959;DHT22;8078;47.822;9.402;2023-04-03T14:44:14;4.10;99.90
15959;DHT22;8078;47.822;9.402;2023-04-03T14:46:43;4.10;99.90
15959;DHT22;8078;47.822;9.402;2023-04-03T14:49:21;4.10;99.90
15959;DHT22;8078;47.822;9.402;2023-04-03T14:51:47;4.00;99.90
15959;DHT22;8078;47.822;9.402;2023-04-03T14:54:15;4.00;99.90
15959;DHT22;8078;47.822;9.402;2023-04-03T14:56:41;3.90;99.90
15959;DHT22;8078;47.822;9.402;2023-04-03T14:59:14;4.00;99.90
15959;DHT22;8078;47.822;9.402;2023-04-03T15:01:40;4.00;99.90
15959;DHT22;8078;47.822;9.402;2023-04-03T15:04:17;3.90;99.90
15959;DHT22;8078;47.822;9.402;2023-04-03T15:06:47;3.80;99.90
15959;DHT22;8078;47.822;9.402;2023-04-03T15:09:20;3.80;99.90
15959;DHT22;8078;47.822;9.402;2023-04-03T15:11:47;3.60;99.90
15959;DHT22;8078;47.822;9.402;2023-04-03T15:14:13;3.50;99.90
15959;DHT22;8078;47.822;9.402;2023-04-03T15:16:38;3.50;99.90
15959;DHT22;8078;47.822;9.402;2023-04-03T15:19:04;3.50;99.90
15959;DHT22;8078;47.822;9.402;2023-04-03T15:21:30;3.60;99.90
15959;DHT22;8078;47.822;9.402;2023-04-03T15:23:55;3.50;99.90
15959;DHT22;8078;47.822;9.402;2023-04-03T15:26:21;3.80;99.90
15959;DHT22;8078;47.822;9.402;2023-04-03T15:28:46;4.50;99.90
15959;DHT22;8078;47.822;9.402;2023-04-03T15:31:12;4.60;99.90
15959;DHT22;8078;47.822;9.402;2023-04-03T15:33:38;4.90;99.90
15959;DHT22;8078;47.822;9.402;2023-04-03T15:36:04;4.80;99.90
15959;DHT22;8078;47.822;9.402;2023-04-03T15:38:30;4.60;99.90
15959;DHT22;8078;47.822;9.402;2023-04-03T15:40:56;4.40;99.90
15959;DHT22;8078;47.822;9.402;2023-04-03T15:43:22;3.90;99.90
15959;DHT22;8078;47.822;9.402;2023-04-03T15:45:48;3.50;99.90
15959;DHT22;8078;47.822;9.402;2023-04-03T15:48:14;3.30;99.90
15959;DHT22;8078;47.822;9.402;2023-04-03T15:50:40;3.10;99.90
15959;DHT22;8078;47.822;9.402;2023-04-03T15:53:06;2.90;99.90
15959;DHT22;8078;47.822;9.402;2023-04-03T15:55:34;2.60;99.90
15959;DHT22;8078;47.822;9.402;2023-04-03T15:58:00;2.50;99.90
15959;DHT22;8078;47.822;9.402;2023-04-03T16:00:27;2.40;99.90
15959;DHT22;8078;47.822;9.402;2023-04-03T16:02:55;2.40;99.90
15959;DHT22;8078;47.822;9.402;2023-04-03T16:05:23;2.30;99.90
15959;DHT22;8078;47.822;9.402;2023-04-03T16:07:49;2.30;99.90
15959;DHT22;8078;47.822;9.402;2023-04-03T16:10:16;2.40;99.90
15959;DHT22;8078;47.822;9.402;2023-04-03T16:12:43;2.50;99.90
15959;DHT22;8078;47.822;9.402;2023-04-03T16:15:08;2.50;99.90
15959;DHT22;8078;47.822;9.402;2023-04-03T16:17:35;2.50;99.90
15959;DHT22;8078;47.822;9.402;2023-04-03T16:20:03;2.60;99.90
15959;DHT22;8078;47.822;9.402;2023-04-03T16:22:29;2.60;99.90
15959;DHT22;8078;47.822;9.402;2023-04-03T16:24:55;2.60;99.90
15959;DHT22;8078;47.822;9.402;2023-04-03T16:27:22;2.70;99.90
15959;DHT22;8078;47.822;9.402;2023-04-03T16:29:47;2.80;99.90
15959;DHT22;8078;47.822;9.402;2023-04-03T16:32:13;2.80;99.90
15959;DHT22;8078;47.822;9.402;2023-04-03T16:34:39;2.70;99.90
15959;DHT22;8078;47.822;9.402;2023-04-03T16:37:06;2.60;99.90
15959;DHT22;8078;47.822;9.402;2023-04-03T16:39:34;2.50;99.90
15959;DHT22;8078;47.822;9.402;2023-04-03T16:42:00;2.30;99.90
15959;DHT22;8078;47.822;9.402;2023-04-03T16:44:26;2.30;99.90
15959;DHT22;8078;47.822;9.402;2023-04-03T16:46:51;2.20;99.90
15959;DHT22;8078;47.822;9.402;2023-04-03T16:49:17;2.20;99.90
15959;DHT22;8078;47.822;9.402;2023-04-03T16:51:43;2.10;99.90
15959;DHT22;8078;47.822;9.402;2023-04-03T16:54:08;2.20;99.90
15959;DHT22;8078;47.822;9.402;2023-04-03T16:56:36;2.10;99.90
15959;DHT22;8078;47.822;9.402;2023-04-03T16:59:02;2.10;99.90
15959;DHT22;8078;47.822;9.402;2023-04-03T17:01:27;2.20;99.90
15959;DHT22;8078;47.822;9.402;2023-04-03T17:03:53;2.20;99.90
15959;DHT22;8078;47.822;9.402;2023-04-03T17:06:20;2.20;99.90
15959;DHT22;8078;47.822;9.402;2023-04-03T17:08:48;2.20;99.90
15959;DHT22;8078;47.822;9.402;2023-04-03T17:11:14;2.20;99.90
15959;DHT22;8078;47.822;9.402;2023-04-03T17:13:40;2.20;99.90
15959;DHT22;8078;47.822;9.402;2023-04-03T17:16:10;2.10;99.90
15959;DHT22;8078;47.822;9.402;2023-04-03T17:18:36;2.00;99.90
15959;DHT22;8078;47.822;9.402;2023-04-03T17:21:03;2.00;99.90
15959;DHT22;8078;47.822;9.402;2023-04-03T17:23:29;2.00;99.90
15959;DHT22;8078;47.822;9.402;2023-04-03T17:25:55;1.90;99.90
15959;DHT22;8078;47.822;9.402;2023-04-03T17:28:21;1.90;99.90
15959;DHT22;8078;47.822;9.402;2023-04-03T17:30:56;1.80;99.90
15959;DHT22;8078;47.822;9.402;2023-04-03T17:33:24;1.70;99.90
15959;DHT22;8078;47.822;9.402;2023-04-03T17:35:50;1.70;99.90
15959;DHT22;8078;47.822;9.402;2023-04-03T17:38:15;1.60;99.90
15959;DHT22;8078;47.822;9.402;2023-04-03T17:40:41;1.60;99.90
15959;DHT22;8078;47.822;9.402;2023-04-03T17:43:07;1.50;99.90
15959;DHT22;8078;47.822;9.402;2023-04-03T17:45:32;1.50;99.90
15959;DHT22;8078;47.822;9.402;2023-04-03T17:47:58;1.40;99.90
15959;DHT22;8078;47.822;9.402;2023-04-03T17:50:23;1.30;99.90
15959;DHT22;8078;47.822;9.402;2023-04-03T17:52:49;1.20;99.90
15959;DHT22;8078;47.822;9.402;2023-04-03T17:55:15;1.20;99.90
15959;DHT22;8078;47.822;9.402;2023-04-03T17:57:42;1.20;99.90